MSC Poesia — 3EPL4 — position and weather

sailwx.info

Track history (hours):
 
Tides and Currents Weather Stations Pressure Air Temp Water Temp Dewpoint Dewpoint Depression Visibility Wind Speed Wind Dir Waves Ship Positions

MSC Poesia

Last reported at 2017-Sep-20 16:06 UTC. Time now 2017-Sep-21 03:35 UTC.
Position N 37°10' E 023°35'.

Length 294 m; draft 7.8 m.

Type: Ship. MMSI: 355931000.

Date/timePositionNaut miles runAvg speedWind from/ knotsBaromVisibWave heightAir tempDewpointWater temp
2017-Sep-20 16:06N 37°10' E 023°35'219.0
2017-Sep-20 16:00N 37°12' E 023°35'918.9
2017-Sep-20 15:30N 37°21' E 023°37'1019.3
2017-Sep-20 15:00N 37°31' E 023°40'1919.1
2017-Sep-20 14:01N 37°50' E 023°37'714.1
2017-Sep-20 13:30N 37°57' E 023°38'0 0.5
2017-Sep-20 12:58N 37°56' E 023°38'0 0.0
2017-Sep-20 12:28N 37°56' E 023°38'0 0.0
2017-Sep-20 11:58N 37°56' E 023°38'0 0.0
2017-Sep-20 11:25N 37°56' E 023°38'0 0.0
2017-Sep-20 10:58N 37°56' E 023°38'0 0.0
2017-Sep-20 10:28N 37°56' E 023°38'0 0.0
2017-Sep-20 09:58N 37°56' E 023°38'0 0.0
2017-Sep-20 09:28N 37°56' E 023°38'0 0.0
2017-Sep-20 08:58N 37°56' E 023°38'0 0.0
2017-Sep-20 08:28N 37°56' E 023°38'0 0.0
2017-Sep-20 07:58N 37°56' E 023°38'0 0.0
2017-Sep-20 07:28N 37°56' E 023°38'0 0.0
2017-Sep-20 06:58N 37°56' E 023°38'0 0.0
2017-Sep-20 06:28N 37°56' E 023°38'0 0.0
2017-Sep-20 05:58N 37°56' E 023°38'0 0.0
2017-Sep-20 05:28N 37°56' E 023°38'0 0.0
2017-Sep-20 04:58N 37°56' E 023°38'0 0.0
2017-Sep-20 04:25N 37°56' E 023°38'0 0.0
2017-Sep-20 04:01N 37°56' E 023°38'1 1.8
2017-Sep-20 03:31N 37°56' E 023°37'1 2.4
2017-Sep-20 03:01N 37°55' E 023°37'4 7.4
2017-Sep-20 02:30N 37°52' E 023°39'510.0
2017-Sep-20 02:00N 37°47' E 023°41'612.0
2017-Sep-20 01:30N 37°42' E 023°45'510.8
2017-Sep-20 01:00N 37°39' E 023°50'5 9.0
2017-Sep-20 00:30N 37°36' E 023°55'5 8.5
2017-Sep-19 23:58N 37°34' E 024°01'13 7.7
2017-Sep-19 22:16N 37°29' E 024°15'2 7.8
2017-Sep-19 22:00N 37°29' E 024°18'21 7.9
2017-Sep-19 19:18N 37°33' E 024°44'2 7.9
2017-Sep-19 19:00N 37°33' E 024°47'4 8.0
2017-Sep-19 18:31N 37°33' E 024°52'4 7.9
2017-Sep-19 18:00N 37°33' E 024°57'4 7.9
2017-Sep-19 17:30N 37°32' E 025°02'4 8.1
2017-Sep-19 17:01N 37°31' E 025°06'4 8.5
2017-Sep-19 16:31N 37°29' E 025°12'4 8.5
2017-Sep-19 16:00N 37°28' E 025°17'2 3.9
2017-Sep-19 15:30N 37°28' E 025°19'0 0.0
2017-Sep-19 15:00N 37°28' E 025°19'0 0.0
2017-Sep-19 14:30N 37°28' E 025°19'0 0.0
2017-Sep-19 14:00N 37°28' E 025°19'0 0.0
2017-Sep-19 13:27N 37°28' E 025°19'0 0.0
2017-Sep-19 13:00N 37°28' E 025°19'0 0.0
2017-Sep-19 12:27N 37°28' E 025°19'0 0.0
2017-Sep-19 12:00N 37°28' E 025°19'0 0.0
2017-Sep-19 11:30N 37°28' E 025°19'0 0.0
2017-Sep-19 11:00N 37°28' E 025°19'0 0.0
2017-Sep-19 10:30N 37°28' E 025°19'0 0.0
2017-Sep-19 10:00N 37°28' E 025°19'0 0.0
2017-Sep-19 09:30N 37°28' E 025°19'0 0.0
2017-Sep-19 09:00N 37°28' E 025°19'0 0.0
2017-Sep-19 08:27N 37°28' E 025°19'0 0.0
2017-Sep-19 08:00N 37°28' E 025°19'0 0.0
2017-Sep-19 07:30N 37°28' E 025°19'0 0.0
2017-Sep-19 07:00N 37°28' E 025°19'0 0.0
2017-Sep-19 06:30N 37°28' E 025°19'0 0.0
2017-Sep-19 06:00N 37°28' E 025°19'0 0.0
2017-Sep-19 05:30N 37°28' E 025°19'0 0.0
2017-Sep-19 05:00N 37°28' E 025°19'0 0.0
2017-Sep-19 04:30N 37°28' E 025°19'0 0.0
2017-Sep-19 04:00N 37°28' E 025°19'4 8.2
2017-Sep-19 03:30N 37°28' E 025°14'815.7
2017-Sep-19 03:00N 37°25' E 025°05'816.5
2017-Sep-19 02:30N 37°20' E 024°57'3318.2
2017-Sep-19 00:42N 37°01' E 024°23'418.3
2017-Sep-19 00:30N 36°59' E 024°19'917.7
2017-Sep-19 00:00N 36°54' E 024°10'917.7
2017-Sep-18 23:30N 36°49' E 024°01'918.0
2017-Sep-18 23:00N 36°44' E 023°52'918.1
2017-Sep-18 22:30N 36°39' E 023°42'42210.6
2017-Sep-17 06:51N 41°11' E 016°49'23120.8
2017-Sep-16 19:46N 44°20' E 013°48'621.9
2017-Sep-16 19:30N 44°25' E 013°44'1121.7
2017-Sep-16 19:00N 44°34' E 013°36'1121.7
2017-Sep-16 18:30N 44°43' E 013°28'1121.8
2017-Sep-16 18:00N 44°53' E 013°19'1121.5
2017-Sep-16 17:30N 44°60' E 013°08'1121.3
2017-Sep-16 17:00N 45°07' E 012°57'1020.3
2017-Sep-16 16:30N 45°14' E 012°46'1121.1
2017-Sep-16 16:00N 45°21' E 012°35'816.9
2017-Sep-16 15:30N 45°26' E 012°25'3 5.8
2017-Sep-16 15:00N 45°26' E 012°21'2 3.4
2017-Sep-16 14:30N 45°26' E 012°19'0 0.0
2017-Sep-16 14:00N 45°26' E 012°19'0 0.0
2017-Sep-16 13:30N 45°26' E 012°19'0 0.0
2017-Sep-16 13:00N 45°26' E 012°19'0 0.0
2017-Sep-16 12:30N 45°26' E 012°19'0 0.0
2017-Sep-16 12:00N 45°26' E 012°19'0 0.0
2017-Sep-16 11:30N 45°26' E 012°19'0 0.0
2017-Sep-16 11:00N 45°26' E 012°19'0 0.0
2017-Sep-16 10:30N 45°26' E 012°19'0 0.0
2017-Sep-16 09:59N 45°26' E 012°19'0 0.0
2017-Sep-16 09:29N 45°26' E 012°19'0 0.0
2017-Sep-16 08:59N 45°26' E 012°19'0 0.0
2017-Sep-16 08:29N 45°26' E 012°19'0 0.0
2017-Sep-16 07:58N 45°26' E 012°19'0 0.0
2017-Sep-16 07:28N 45°26' E 012°19'0 0.0
2017-Sep-16 06:58N 45°26' E 012°19'0 0.1
2017-Sep-16 06:30N 45°26' E 012°19'2 3.6
2017-Sep-16 06:00N 45°26' E 012°21'3 5.1
2017-Sep-16 05:31N 45°26' E 012°25'612.6
2017-Sep-16 05:01N 45°23' E 012°32'918.0
2017-Sep-16 04:31N 45°18' E 012°44'918.1
2017-Sep-16 04:00N 45°12' E 012°53'918.4
2017-Sep-16 03:31N 45°06' E 013°03'918.6
2017-Sep-16 03:00N 45°01' E 013°14'918.5
2017-Sep-16 02:30N 44°55' E 013°24'918.8
2017-Sep-16 02:00N 44°47' E 013°32'918.8
2017-Sep-16 01:31N 44°40' E 013°39'918.4
2017-Sep-16 01:00N 44°32' E 013°46'1018.4
2017-Sep-16 00:29N 44°23' E 013°52'1118.5
2017-Sep-15 23:52N 44°14' E 014°00'718.4
2017-Sep-15 23:29N 44°08' E 014°07'32612.1
2017-Sep-14 20:29N 40°16' E 019°16'28610.6
2017-Sep-13 17:35N 36°48' E 023°27'220.0
2017-Sep-13 17:30N 36°49' E 023°27'1420.0
2017-Sep-13 16:49N 37°02' E 023°32'1419.8
2017-Sep-13 16:08N 37°16' E 023°36'319.7
2017-Sep-13 15:59N 37°18' E 023°37'919.7
2017-Sep-13 15:30N 37°28' E 023°39'1019.8
2017-Sep-13 15:00N 37°37' E 023°42'1019.7
2017-Sep-13 14:30N 37°47' E 023°38'917.3
2017-Sep-13 14:00N 37°55' E 023°37'1 2.7
2017-Sep-13 13:29N 37°56' E 023°38'0 0.0
2017-Sep-13 12:56N 37°56' E 023°38'0 0.0
2017-Sep-13 12:29N 37°56' E 023°38'0 0.0
2017-Sep-13 11:59N 37°56' E 023°38'0 0.0
2017-Sep-13 11:29N 37°56' E 023°38'0 0.0
2017-Sep-13 10:59N 37°56' E 023°38'0 0.0
2017-Sep-13 10:26N 37°56' E 023°38'0 0.0
2017-Sep-13 09:59N 37°56' E 023°38'0 0.0
2017-Sep-13 09:29N 37°56' E 023°38'0 0.0
2017-Sep-13 08:59N 37°56' E 023°38'0 0.0
2017-Sep-13 08:29N 37°56' E 023°38'0 0.0
2017-Sep-13 07:56N 37°56' E 023°38'0 0.0
2017-Sep-13 07:29N 37°56' E 023°38'0 0.0
2017-Sep-13 06:59N 37°56' E 023°38'0 0.0
2017-Sep-13 06:29N 37°56' E 023°38'0 0.0
2017-Sep-13 05:59N 37°56' E 023°38'0 0.0
2017-Sep-13 05:29N 37°56' E 023°38'0 0.0
2017-Sep-13 04:59N 37°56' E 023°38'0 0.0
2017-Sep-13 04:26N 37°56' E 023°38'0 0.0
2017-Sep-13 04:00N 37°56' E 023°38'1 2.7
2017-Sep-13 03:30N 37°56' E 023°37'2 3.2
2017-Sep-13 03:00N 37°54' E 023°37'3 6.3
2017-Sep-13 02:31N 37°51' E 023°38'612.7
2017-Sep-13 02:00N 37°46' E 023°42'612.4
2017-Sep-13 01:31N 37°41' E 023°46'611.5
2017-Sep-13 01:01N 37°38' E 023°52'41 8.4
2017-Sep-12 20:04N 37°33' E 024°44'0 1.9
2017-Sep-12 20:00N 37°33' E 024°45'4 9.0
2017-Sep-12 19:30N 37°33' E 024°50'5 9.0
2017-Sep-12 18:58N 37°33' E 024°56'4 8.9
2017-Sep-12 18:31N 37°32' E 025°01'10 9.0
2017-Sep-12 17:24N 37°29' E 025°13'4 8.9
2017-Sep-12 17:01N 37°28' E 025°17'2 2.9
2017-Sep-12 16:25N 37°27' E 025°19'0 0.0
2017-Sep-12 15:58N 37°27' E 025°19'0 0.0
2017-Sep-12 15:28N 37°27' E 025°19'0 0.0
2017-Sep-12 14:55N 37°27' E 025°19'0 0.0
2017-Sep-12 14:28N 37°27' E 025°19'0 0.0
2017-Sep-12 13:58N 37°27' E 025°19'0 0.0
2017-Sep-12 13:28N 37°27' E 025°19'0 0.0
2017-Sep-12 12:58N 37°27' E 025°19'0 0.0
2017-Sep-12 12:28N 37°27' E 025°19'0 0.0
2017-Sep-12 11:58N 37°27' E 025°19'0 0.0
2017-Sep-12 11:28N 37°27' E 025°19'0 0.0
2017-Sep-12 10:58N 37°27' E 025°19'0 0.0
2017-Sep-12 10:28N 37°27' E 025°19'0 0.0
2017-Sep-12 09:55N 37°27' E 025°19'0 0.0
2017-Sep-12 09:28N 37°27' E 025°19'0 0.0
2017-Sep-12 08:58N 37°27' E 025°19'0 0.0
2017-Sep-12 08:28N 37°27' E 025°19'0 0.0
2017-Sep-12 07:58N 37°27' E 025°19'0 0.0
2017-Sep-12 07:28N 37°27' E 025°19'0 0.0
2017-Sep-12 06:58N 37°27' E 025°19'0 0.0
2017-Sep-12 06:28N 37°27' E 025°19'0 0.0
2017-Sep-12 05:59N 37°27' E 025°19'2 4.2
2017-Sep-12 05:30N 37°27' E 025°17'917.9
2017-Sep-12 05:00N 37°25' E 025°06'1019.8
2017-Sep-12 04:30N 37°19' E 024°55'215 9.1
2017-Sep-11 04:44N 38°03' E 020°29'521.3
2017-Sep-11 04:31N 38°05' E 020°23'4520.7
2017-Sep-11 02:21N 38°42' E 019°51'719.2
2017-Sep-11 02:00N 38°48' E 019°46'  
Track history (hours):
 
Tides and Currents Weather Stations Pressure Air Temp Water Temp Dewpoint Dewpoint Depression Visibility Wind Speed Wind Dir Waves Ship Positions

MSC Poesia

Last reported at 2017-Sep-20 16:06 UTC. Time now 2017-Sep-21 03:35 UTC.
Position N 37°10' E 023°35'.

Length 294 m; draft 7.8 m.

Type: Ship. MMSI: 355931000.

Date/timePositionNaut miles runAvg speedWind from/ knotsBaromVisibWave heightAir tempDewpointWater temp
2017-Sep-20 16:06N 37°10' E 023°35'219.0
2017-Sep-20 16:00N 37°12' E 023°35'918.9
2017-Sep-20 15:30N 37°21' E 023°37'1019.3
2017-Sep-20 15:00N 37°31' E 023°40'1919.1
2017-Sep-20 14:01N 37°50' E 023°37'714.1
2017-Sep-20 13:30N 37°57' E 023°38'0 0.5
2017-Sep-20 12:58N 37°56' E 023°38'0 0.0
2017-Sep-20 12:28N 37°56' E 023°38'0 0.0
2017-Sep-20 11:58N 37°56' E 023°38'0 0.0
2017-Sep-20 11:25N 37°56' E 023°38'0 0.0
2017-Sep-20 10:58N 37°56' E 023°38'0 0.0
2017-Sep-20 10:28N 37°56' E 023°38'0 0.0
2017-Sep-20 09:58N 37°56' E 023°38'0 0.0
2017-Sep-20 09:28N 37°56' E 023°38'0 0.0
2017-Sep-20 08:58N 37°56' E 023°38'0 0.0
2017-Sep-20 08:28N 37°56' E 023°38'0 0.0
2017-Sep-20 07:58N 37°56' E 023°38'0 0.0
2017-Sep-20 07:28N 37°56' E 023°38'0 0.0
2017-Sep-20 06:58N 37°56' E 023°38'0 0.0
2017-Sep-20 06:28N 37°56' E 023°38'0 0.0
2017-Sep-20 05:58N 37°56' E 023°38'0 0.0
2017-Sep-20 05:28N 37°56' E 023°38'0 0.0
2017-Sep-20 04:58N 37°56' E 023°38'0 0.0
2017-Sep-20 04:25N 37°56' E 023°38'0 0.0
2017-Sep-20 04:01N 37°56' E 023°38'1 1.8
2017-Sep-20 03:31N 37°56' E 023°37'1 2.4
2017-Sep-20 03:01N 37°55' E 023°37'4 7.4
2017-Sep-20 02:30N 37°52' E 023°39'510.0
2017-Sep-20 02:00N 37°47' E 023°41'612.0
2017-Sep-20 01:30N 37°42' E 023°45'510.8
2017-Sep-20 01:00N 37°39' E 023°50'5 9.0
2017-Sep-20 00:30N 37°36' E 023°55'5 8.5
2017-Sep-19 23:58N 37°34' E 024°01'13 7.7
2017-Sep-19 22:16N 37°29' E 024°15'2 7.8
2017-Sep-19 22:00N 37°29' E 024°18'21 7.9
2017-Sep-19 19:18N 37°33' E 024°44'2 7.9
2017-Sep-19 19:00N 37°33' E 024°47'4 8.0
2017-Sep-19 18:31N 37°33' E 024°52'4 7.9
2017-Sep-19 18:00N 37°33' E 024°57'4 7.9
2017-Sep-19 17:30N 37°32' E 025°02'4 8.1
2017-Sep-19 17:01N 37°31' E 025°06'4 8.5
2017-Sep-19 16:31N 37°29' E 025°12'4 8.5
2017-Sep-19 16:00N 37°28' E 025°17'2 3.9
2017-Sep-19 15:30N 37°28' E 025°19'0 0.0
2017-Sep-19 15:00N 37°28' E 025°19'0 0.0
2017-Sep-19 14:30N 37°28' E 025°19'0 0.0
2017-Sep-19 14:00N 37°28' E 025°19'0 0.0
2017-Sep-19 13:27N 37°28' E 025°19'0 0.0
2017-Sep-19 13:00N 37°28' E 025°19'0 0.0
2017-Sep-19 12:27N 37°28' E 025°19'0 0.0
2017-Sep-19 12:00N 37°28' E 025°19'0 0.0
2017-Sep-19 11:30N 37°28' E 025°19'0 0.0
2017-Sep-19 11:00N 37°28' E 025°19'0 0.0
2017-Sep-19 10:30N 37°28' E 025°19'0 0.0
2017-Sep-19 10:00N 37°28' E 025°19'0 0.0
2017-Sep-19 09:30N 37°28' E 025°19'0 0.0
2017-Sep-19 09:00N 37°28' E 025°19'0 0.0
2017-Sep-19 08:27N 37°28' E 025°19'0 0.0
2017-Sep-19 08:00N 37°28' E 025°19'0 0.0
2017-Sep-19 07:30N 37°28' E 025°19'0 0.0
2017-Sep-19 07:00N 37°28' E 025°19'0 0.0
2017-Sep-19 06:30N 37°28' E 025°19'0 0.0
2017-Sep-19 06:00N 37°28' E 025°19'0 0.0
2017-Sep-19 05:30N 37°28' E 025°19'0 0.0
2017-Sep-19 05:00N 37°28' E 025°19'0 0.0
2017-Sep-19 04:30N 37°28' E 025°19'0 0.0
2017-Sep-19 04:00N 37°28' E 025°19'4 8.2
2017-Sep-19 03:30N 37°28' E 025°14'815.7
2017-Sep-19 03:00N 37°25' E 025°05'816.5
2017-Sep-19 02:30N 37°20' E 024°57'3318.2
2017-Sep-19 00:42N 37°01' E 024°23'418.3
2017-Sep-19 00:30N 36°59' E 024°19'917.7
2017-Sep-19 00:00N 36°54' E 024°10'917.7
2017-Sep-18 23:30N 36°49' E 024°01'918.0
2017-Sep-18 23:00N 36°44' E 023°52'918.1
2017-Sep-18 22:30N 36°39' E 023°42'42210.6
2017-Sep-17 06:51N 41°11' E 016°49'23120.8
2017-Sep-16 19:46N 44°20' E 013°48'621.9
2017-Sep-16 19:30N 44°25' E 013°44'1121.7
2017-Sep-16 19:00N 44°34' E 013°36'1121.7
2017-Sep-16 18:30N 44°43' E 013°28'1121.8
2017-Sep-16 18:00N 44°53' E 013°19'1121.5
2017-Sep-16 17:30N 44°60' E 013°08'1121.3
2017-Sep-16 17:00N 45°07' E 012°57'1020.3
2017-Sep-16 16:30N 45°14' E 012°46'1121.1
2017-Sep-16 16:00N 45°21' E 012°35'816.9
2017-Sep-16 15:30N 45°26' E 012°25'3 5.8
2017-Sep-16 15:00N 45°26' E 012°21'2 3.4
2017-Sep-16 14:30N 45°26' E 012°19'0 0.0
2017-Sep-16 14:00N 45°26' E 012°19'0 0.0
2017-Sep-16 13:30N 45°26' E 012°19'0 0.0
2017-Sep-16 13:00N 45°26' E 012°19'0 0.0
2017-Sep-16 12:30N 45°26' E 012°19'0 0.0
2017-Sep-16 12:00N 45°26' E 012°19'0 0.0
2017-Sep-16 11:30N 45°26' E 012°19'0 0.0
2017-Sep-16 11:00N 45°26' E 012°19'0 0.0
2017-Sep-16 10:30N 45°26' E 012°19'0 0.0
2017-Sep-16 09:59N 45°26' E 012°19'0 0.0
2017-Sep-16 09:29N 45°26' E 012°19'0 0.0
2017-Sep-16 08:59N 45°26' E 012°19'0 0.0
2017-Sep-16 08:29N 45°26' E 012°19'0 0.0
2017-Sep-16 07:58N 45°26' E 012°19'0 0.0
2017-Sep-16 07:28N 45°26' E 012°19'0 0.0
2017-Sep-16 06:58N 45°26' E 012°19'0 0.1
2017-Sep-16 06:30N 45°26' E 012°19'2 3.6
2017-Sep-16 06:00N 45°26' E 012°21'3 5.1
2017-Sep-16 05:31N 45°26' E 012°25'612.6
2017-Sep-16 05:01N 45°23' E 012°32'918.0
2017-Sep-16 04:31N 45°18' E 012°44'918.1
2017-Sep-16 04:00N 45°12' E 012°53'918.4
2017-Sep-16 03:31N 45°06' E 013°03'918.6
2017-Sep-16 03:00N 45°01' E 013°14'918.5
2017-Sep-16 02:30N 44°55' E 013°24'918.8
2017-Sep-16 02:00N 44°47' E 013°32'918.8
2017-Sep-16 01:31N 44°40' E 013°39'918.4
2017-Sep-16 01:00N 44°32' E 013°46'1018.4
2017-Sep-16 00:29N 44°23' E 013°52'1118.5
2017-Sep-15 23:52N 44°14' E 014°00'718.4
2017-Sep-15 23:29N 44°08' E 014°07'32612.1
2017-Sep-14 20:29N 40°16' E 019°16'28610.6
2017-Sep-13 17:35N 36°48' E 023°27'220.0
2017-Sep-13 17:30N 36°49' E 023°27'1420.0
2017-Sep-13 16:49N 37°02' E 023°32'1419.8
2017-Sep-13 16:08N 37°16' E 023°36'319.7
2017-Sep-13 15:59N 37°18' E 023°37'919.7
2017-Sep-13 15:30N 37°28' E 023°39'1019.8
2017-Sep-13 15:00N 37°37' E 023°42'1019.7
2017-Sep-13 14:30N 37°47' E 023°38'917.3
2017-Sep-13 14:00N 37°55' E 023°37'1 2.7
2017-Sep-13 13:29N 37°56' E 023°38'0 0.0
2017-Sep-13 12:56N 37°56' E 023°38'0 0.0
2017-Sep-13 12:29N 37°56' E 023°38'0 0.0
2017-Sep-13 11:59N 37°56' E 023°38'0 0.0
2017-Sep-13 11:29N 37°56' E 023°38'0 0.0
2017-Sep-13 10:59N 37°56' E 023°38'0 0.0
2017-Sep-13 10:26N 37°56' E 023°38'0 0.0
2017-Sep-13 09:59N 37°56' E 023°38'0 0.0
2017-Sep-13 09:29N 37°56' E 023°38'0 0.0
2017-Sep-13 08:59N 37°56' E 023°38'0 0.0
2017-Sep-13 08:29N 37°56' E 023°38'0 0.0
2017-Sep-13 07:56N 37°56' E 023°38'0 0.0
2017-Sep-13 07:29N 37°56' E 023°38'0 0.0
2017-Sep-13 06:59N 37°56' E 023°38'0 0.0
2017-Sep-13 06:29N 37°56' E 023°38'0 0.0
2017-Sep-13 05:59N 37°56' E 023°38'0 0.0
2017-Sep-13 05:29N 37°56' E 023°38'0 0.0
2017-Sep-13 04:59N 37°56' E 023°38'0 0.0
2017-Sep-13 04:26N 37°56' E 023°38'0 0.0
2017-Sep-13 04:00N 37°56' E 023°38'1 2.7
2017-Sep-13 03:30N 37°56' E 023°37'2 3.2
2017-Sep-13 03:00N 37°54' E 023°37'3 6.3
2017-Sep-13 02:31N 37°51' E 023°38'612.7
2017-Sep-13 02:00N 37°46' E 023°42'612.4
2017-Sep-13 01:31N 37°41' E 023°46'611.5
2017-Sep-13 01:01N 37°38' E 023°52'41 8.4
2017-Sep-12 20:04N 37°33' E 024°44'0 1.9
2017-Sep-12 20:00N 37°33' E 024°45'4 9.0
2017-Sep-12 19:30N 37°33' E 024°50'5 9.0
2017-Sep-12 18:58N 37°33' E 024°56'4 8.9
2017-Sep-12 18:31N 37°32' E 025°01'10 9.0
2017-Sep-12 17:24N 37°29' E 025°13'4 8.9
2017-Sep-12 17:01N 37°28' E 025°17'2 2.9
2017-Sep-12 16:25N 37°27' E 025°19'0 0.0
2017-Sep-12 15:58N 37°27' E 025°19'0 0.0
2017-Sep-12 15:28N 37°27' E 025°19'0 0.0
2017-Sep-12 14:55N 37°27' E 025°19'0 0.0
2017-Sep-12 14:28N 37°27' E 025°19'0 0.0
2017-Sep-12 13:58N 37°27' E 025°19'0 0.0
2017-Sep-12 13:28N 37°27' E 025°19'0 0.0
2017-Sep-12 12:58N 37°27' E 025°19'0 0.0
2017-Sep-12 12:28N 37°27' E 025°19'0 0.0
2017-Sep-12 11:58N 37°27' E 025°19'0 0.0
2017-Sep-12 11:28N 37°27' E 025°19'0 0.0
2017-Sep-12 10:58N 37°27' E 025°19'0 0.0
2017-Sep-12 10:28N 37°27' E 025°19'0 0.0
2017-Sep-12 09:55N 37°27' E 025°19'0 0.0
2017-Sep-12 09:28N 37°27' E 025°19'0 0.0
2017-Sep-12 08:58N 37°27' E 025°19'0 0.0
2017-Sep-12 08:28N 37°27' E 025°19'0 0.0
2017-Sep-12 07:58N 37°27' E 025°19'0 0.0
2017-Sep-12 07:28N 37°27' E 025°19'0 0.0
2017-Sep-12 06:58N 37°27' E 025°19'0 0.0
2017-Sep-12 06:28N 37°27' E 025°19'0 0.0
2017-Sep-12 05:59N 37°27' E 025°19'2 4.2
2017-Sep-12 05:30N 37°27' E 025°17'917.9
2017-Sep-12 05:00N 37°25' E 025°06'1019.8
2017-Sep-12 04:30N 37°19' E 024°55'215 9.1
2017-Sep-11 04:44N 38°03' E 020°29'521.3
2017-Sep-11 04:31N 38°05' E 020°23'4520.7
2017-Sep-11 02:21N 38°42' E 019°51'719.2
2017-Sep-11 02:00N 38°48' E 019°46'  

Dump ship's entire track history